sensor_id;sensor_type;location;lat;lon;timestamp;P1;durP1;ratioP1;P2;durP2;ratioP2
51560;SDS011;37654;51.262;17.058;2024-01-15T00:00:07;20.38;;;7.72;;
51560;SDS011;37654;51.262;17.058;2024-01-15T00:02:33;16.67;;;8.57;;
51560;SDS011;37654;51.262;17.058;2024-01-15T00:04:58;18.33;;;7.72;;
51560;SDS011;37654;51.262;17.058;2024-01-15T00:07:24;18.00;;;7.78;;
51560;SDS011;37654;51.262;17.058;2024-01-15T00:09:49;18.92;;;7.65;;
51560;SDS011;37654;51.262;17.058;2024-01-15T00:12:14;19.83;;;8.00;;
51560;SDS011;37654;51.262;17.058;2024-01-15T00:14:40;20.33;;;7.93;;
51560;SDS011;37654;51.262;17.058;2024-01-15T00:17:05;19.73;;;8.00;;
51560;SDS011;37654;51.262;17.058;2024-01-15T00:19:31;21.48;;;7.95;;
51560;SDS011;37654;51.262;17.058;2024-01-15T00:21:57;22.48;;;10.27;;
51560;SDS011;37654;51.262;17.058;2024-01-15T00:24:22;36.67;;;14.73;;
51560;SDS011;37654;51.262;17.058;2024-01-15T00:26:48;25.87;;;11.60;;
51560;SDS011;37654;51.262;17.058;2024-01-15T00:29:13;28.55;;;12.32;;
51560;SDS011;37654;51.262;17.058;2024-01-15T00:31:38;36.10;;;12.32;;
51560;SDS011;37654;51.262;17.058;2024-01-15T00:34:04;29.73;;;11.18;;
51560;SDS011;37654;51.262;17.058;2024-01-15T00:36:29;22.95;;;9.00;;
51560;SDS011;37654;51.262;17.058;2024-01-15T00:38:54;27.80;;;8.90;;
51560;SDS011;37654;51.262;17.058;2024-01-15T00:41:19;17.07;;;8.03;;
51560;SDS011;37654;51.262;17.058;2024-01-15T00:43:45;17.95;;;8.43;;
51560;SDS011;37654;51.262;17.058;2024-01-15T00:46:10;17.90;;;8.40;;
51560;SDS011;37654;51.262;17.058;2024-01-15T00:48:36;18.77;;;7.72;;
51560;SDS011;37654;51.262;17.058;2024-01-15T00:51:01;19.33;;;8.95;;
51560;SDS011;37654;51.262;17.058;2024-01-15T00:53:26;17.88;;;7.35;;
51560;SDS011;37654;51.262;17.058;2024-01-15T00:55:52;18.40;;;8.15;;
51560;SDS011;37654;51.262;17.058;2024-01-15T00:58:18;20.00;;;8.53;;
51560;SDS011;37654;51.262;17.058;2024-01-15T01:00:43;24.23;;;9.48;;
51560;SDS011;37654;51.262;17.058;2024-01-15T01:03:08;22.57;;;9.53;;
51560;SDS011;37654;51.262;17.058;2024-01-15T01:05:34;17.20;;;8.40;;
51560;SDS011;37654;51.262;17.058;2024-01-15T01:07:59;21.33;;;8.52;;
51560;SDS011;37654;51.262;17.058;2024-01-15T01:10:24;19.65;;;9.38;;
51560;SDS011;37654;51.262;17.058;2024-01-15T01:12:50;16.95;;;7.97;;
51560;SDS011;37654;51.262;17.058;2024-01-15T01:15:15;21.55;;;9.27;;
51560;SDS011;37654;51.262;17.058;2024-01-15T01:17:41;22.35;;;8.85;;
51560;SDS011;37654;51.262;17.058;2024-01-15T01:20:06;26.10;;;9.32;;
51560;SDS011;37654;51.262;17.058;2024-01-15T01:22:33;18.73;;;8.30;;
51560;SDS011;37654;51.262;17.058;2024-01-15T01:24:59;20.05;;;8.60;;
51560;SDS011;37654;51.262;17.058;2024-01-15T01:27:24;21.60;;;8.95;;
51560;SDS011;37654;51.262;17.058;2024-01-15T01:29:49;20.83;;;8.32;;
51560;SDS011;37654;51.262;17.058;2024-01-15T01:32:14;20.35;;;8.35;;
51560;SDS011;37654;51.262;17.058;2024-01-15T01:34:40;19.20;;;8.18;;
51560;SDS011;37654;51.262;17.058;2024-01-15T01:37:09;17.33;;;8.18;;
51560;SDS011;37654;51.262;17.058;2024-01-15T01:39:34;18.83;;;8.38;;
51560;SDS011;37654;51.262;17.058;2024-01-15T01:41:59;20.02;;;8.32;;
51560;SDS011;37654;51.262;17.058;2024-01-15T01:44:25;19.50;;;8.95;;
51560;SDS011;37654;51.262;17.058;2024-01-15T01:46:50;20.70;;;8.63;;
51560;SDS011;37654;51.262;17.058;2024-01-15T01:49:15;20.30;;;8.52;;
51560;SDS011;37654;51.262;17.058;2024-01-15T01:51:41;17.83;;;8.20;;
51560;SDS011;37654;51.262;17.058;2024-01-15T01:54:06;17.90;;;9.30;;
51560;SDS011;37654;51.262;17.058;2024-01-15T01:56:33;20.33;;;9.07;;
51560;SDS011;37654;51.262;17.058;2024-01-15T01:58:58;20.38;;;8.10;;
51560;SDS011;37654;51.262;17.058;2024-01-15T02:01:24;18.02;;;8.13;;
51560;SDS011;37654;51.262;17.058;2024-01-15T02:03:49;18.45;;;8.93;;
51560;SDS011;37654;51.262;17.058;2024-01-15T02:06:14;16.75;;;8.07;;
51560;SDS011;37654;51.262;17.058;2024-01-15T02:08:39;17.60;;;7.53;;
51560;SDS011;37654;51.262;17.058;2024-01-15T02:11:08;20.90;;;7.90;;
51560;SDS011;37654;51.262;17.058;2024-01-15T02:13:33;14.65;;;6.53;;
51560;SDS011;37654;51.262;17.058;2024-01-15T02:15:58;15.80;;;6.85;;
51560;SDS011;37654;51.262;17.058;2024-01-15T02:18:24;17.60;;;7.10;;
51560;SDS011;37654;51.262;17.058;2024-01-15T02:20:49;16.67;;;6.68;;
51560;SDS011;37654;51.262;17.058;2024-01-15T02:23:15;15.77;;;6.85;;
51560;SDS011;37654;51.262;17.058;2024-01-15T02:25:41;13.30;;;6.60;;
51560;SDS011;37654;51.262;17.058;2024-01-15T02:28:10;15.60;;;7.07;;
51560;SDS011;37654;51.262;17.058;2024-01-15T02:30:36;19.77;;;6.68;;
51560;SDS011;37654;51.262;17.058;2024-01-15T02:33:03;14.85;;;8.18;;
51560;SDS011;37654;51.262;17.058;2024-01-15T02:35:28;20.63;;;8.77;;
51560;SDS011;37654;51.262;17.058;2024-01-15T02:37:53;17.87;;;7.13;;
51560;SDS011;37654;51.262;17.058;2024-01-15T02:40:18;15.82;;;6.55;;
51560;SDS011;37654;51.262;17.058;2024-01-15T02:42:44;14.83;;;7.20;;
51560;SDS011;37654;51.262;17.058;2024-01-15T02:45:09;14.33;;;5.30;;
51560;SDS011;37654;51.262;17.058;2024-01-15T02:47:35;17.17;;;7.28;;
51560;SDS011;37654;51.262;17.058;2024-01-15T02:50:00;16.50;;;7.60;;
51560;SDS011;37654;51.262;17.058;2024-01-15T02:52:25;16.90;;;8.00;;
51560;SDS011;37654;51.262;17.058;2024-01-15T02:54:50;19.90;;;8.27;;
51560;SDS011;37654;51.262;17.058;2024-01-15T02:57:16;18.60;;;7.68;;
51560;SDS011;37654;51.262;17.058;2024-01-15T02:59:41;22.83;;;9.87;;
51560;SDS011;37654;51.262;17.058;2024-01-15T03:02:07;15.48;;;7.53;;
51560;SDS011;37654;51.262;17.058;2024-01-15T03:04:32;20.20;;;7.40;;
51560;SDS011;37654;51.262;17.058;2024-01-15T03:06:57;15.30;;;7.93;;
51560;SDS011;37654;51.262;17.058;2024-01-15T03:09:22;18.13;;;8.57;;
51560;SDS011;37654;51.262;17.058;2024-01-15T03:11:48;18.83;;;8.47;;
51560;SDS011;37654;51.262;17.058;2024-01-15T03:14:13;17.88;;;7.38;;
51560;SDS011;37654;51.262;17.058;2024-01-15T03:16:39;17.35;;;8.30;;
51560;SDS011;37654;51.262;17.058;2024-01-15T03:19:04;15.30;;;7.65;;
51560;SDS011;37654;51.262;17.058;2024-01-15T03:21:29;17.45;;;7.30;;
51560;SDS011;37654;51.262;17.058;2024-01-15T03:23:54;17.13;;;8.13;;
51560;SDS011;37654;51.262;17.058;2024-01-15T03:26:20;14.07;;;7.13;;
51560;SDS011;37654;51.262;17.058;2024-01-15T03:28:45;17.17;;;7.23;;
51560;SDS011;37654;51.262;17.058;2024-01-15T03:31:10;17.85;;;7.57;;
51560;SDS011;37654;51.262;17.058;2024-01-15T03:33:35;14.27;;;6.85;;
51560;SDS011;37654;51.262;17.058;2024-01-15T03:36:01;14.82;;;6.95;;
51560;SDS011;37654;51.262;17.058;2024-01-15T03:38:29;16.73;;;7.28;;
51560;SDS011;37654;51.262;17.058;2024-01-15T03:40:54;15.57;;;6.75;;
51560;SDS011;37654;51.262;17.058;2024-01-15T03:43:20;14.75;;;6.32;;
51560;SDS011;37654;51.262;17.058;2024-01-15T03:45:45;13.35;;;5.70;;
51560;SDS011;37654;51.262;17.058;2024-01-15T03:48:11;18.83;;;6.72;;
51560;SDS011;37654;51.262;17.058;2024-01-15T03:50:36;13.25;;;5.30;;
51560;SDS011;37654;51.262;17.058;2024-01-15T03:53:01;15.13;;;8.53;;
51560;SDS011;37654;51.262;17.058;2024-01-15T03:55:26;11.55;;;5.80;;
51560;SDS011;37654;51.262;17.058;2024-01-15T03:57:52;10.37;;;5.50;;
51560;SDS011;37654;51.262;17.058;2024-01-15T04:00:17;14.77;;;5.85;;
51560;SDS011;37654;51.262;17.058;2024-01-15T04:02:43;11.13;;;5.18;;
51560;SDS011;37654;51.262;17.058;2024-01-15T04:05:08;7.95;;;4.82;;
51560;SDS011;37654;51.262;17.058;2024-01-15T04:07:34;13.63;;;4.83;;
51560;SDS011;37654;51.262;17.058;2024-01-15T04:09:59;11.38;;;4.97;;
51560;SDS011;37654;51.262;17.058;2024-01-15T04:12:24;11.63;;;4.97;;
51560;SDS011;37654;51.262;17.058;2024-01-15T04:14:50;14.52;;;4.22;;
51560;SDS011;37654;51.262;17.058;2024-01-15T04:17:15;13.55;;;5.40;;
51560;SDS011;37654;51.262;17.058;2024-01-15T04:19:43;9.57;;;4.57;;
51560;SDS011;37654;51.262;17.058;2024-01-15T04:22:09;9.43;;;4.78;;
51560;SDS011;37654;51.262;17.058;2024-01-15T04:24:34;12.88;;;5.22;;
51560;SDS011;37654;51.262;17.058;2024-01-15T04:26:59;13.95;;;5.32;;
51560;SDS011;37654;51.262;17.058;2024-01-15T04:29:24;12.93;;;5.43;;
51560;SDS011;37654;51.262;17.058;2024-01-15T04:31:50;10.60;;;3.80;;
51560;SDS011;37654;51.262;17.058;2024-01-15T04:34:15;10.20;;;4.47;;
51560;SDS011;37654;51.262;17.058;2024-01-15T04:36:40;11.50;;;4.80;;
51560;SDS011;37654;51.262;17.058;2024-01-15T04:39:06;10.68;;;5.15;;
51560;SDS011;37654;51.262;17.058;2024-01-15T04:41:32;11.35;;;5.10;;
51560;SDS011;37654;51.262;17.058;2024-01-15T04:43:57;12.25;;;4.75;;
51560;SDS011;37654;51.262;17.058;2024-01-15T04:46:25;12.55;;;4.60;;
51560;SDS011;37654;51.262;17.058;2024-01-15T04:48:50;9.98;;;4.43;;
51560;SDS011;37654;51.262;17.058;2024-01-15T04:51:15;10.93;;;5.07;;
51560;SDS011;37654;51.262;17.058;2024-01-15T04:53:41;10.07;;;4.65;;
51560;SDS011;37654;51.262;17.058;2024-01-15T04:56:06;11.27;;;5.18;;
51560;SDS011;37654;51.262;17.058;2024-01-15T04:58:31;13.30;;;5.20;;
51560;SDS011;37654;51.262;17.058;2024-01-15T05:00:57;11.48;;;4.78;;
51560;SDS011;37654;51.262;17.058;2024-01-15T05:03:22;9.15;;;4.50;;
51560;SDS011;37654;51.262;17.058;2024-01-15T05:05:47;11.27;;;4.80;;
51560;SDS011;37654;51.262;17.058;2024-01-15T05:08:13;8.50;;;4.25;;
51560;SDS011;37654;51.262;17.058;2024-01-15T05:10:38;11.70;;;5.30;;
51560;SDS011;37654;51.262;17.058;2024-01-15T05:13:03;13.20;;;5.53;;
51560;SDS011;37654;51.262;17.058;2024-01-15T05:15:28;8.07;;;4.15;;
51560;SDS011;37654;51.262;17.058;2024-01-15T05:17:54;13.25;;;6.05;;
51560;SDS011;37654;51.262;17.058;2024-01-15T05:20:20;7.88;;;4.75;;
51560;SDS011;37654;51.262;17.058;2024-01-15T05:22:45;12.85;;;5.63;;
51560;SDS011;37654;51.262;17.058;2024-01-15T05:25:10;10.88;;;5.15;;
51560;SDS011;37654;51.262;17.058;2024-01-15T05:27:35;15.60;;;5.82;;
51560;SDS011;37654;51.262;17.058;2024-01-15T05:30:01;12.70;;;5.35;;
51560;SDS011;37654;51.262;17.058;2024-01-15T05:32:26;13.52;;;6.25;;
51560;SDS011;37654;51.262;17.058;2024-01-15T05:34:51;13.00;;;5.95;;
51560;SDS011;37654;51.262;17.058;2024-01-15T05:37:16;19.80;;;6.77;;
51560;SDS011;37654;51.262;17.058;2024-01-15T05:39:42;13.63;;;5.70;;
51560;SDS011;37654;51.262;17.058;2024-01-15T05:42:07;13.37;;;5.70;;
51560;SDS011;37654;51.262;17.058;2024-01-15T05:44:32;16.65;;;5.57;;
51560;SDS011;37654;51.262;17.058;2024-01-15T05:46:58;17.30;;;6.38;;
51560;SDS011;37654;51.262;17.058;2024-01-15T05:49:23;10.45;;;4.72;;
51560;SDS011;37654;51.262;17.058;2024-01-15T05:51:48;9.18;;;4.38;;
51560;SDS011;37654;51.262;17.058;2024-01-15T05:54:13;17.50;;;6.30;;
51560;SDS011;37654;51.262;17.058;2024-01-15T05:56:39;15.80;;;7.93;;
51560;SDS011;37654;51.262;17.058;2024-01-15T05:59:04;11.05;;;4.45;;
51560;SDS011;37654;51.262;17.058;2024-01-15T06:01:29;15.82;;;6.00;;
51560;SDS011;37654;51.262;17.058;2024-01-15T06:03:55;10.73;;;4.75;;
51560;SDS011;37654;51.262;17.058;2024-01-15T06:06:20;15.65;;;5.68;;
51560;SDS011;37654;51.262;17.058;2024-01-15T06:08:45;8.15;;;4.75;;
51560;SDS011;37654;51.262;17.058;2024-01-15T06:11:10;11.18;;;5.25;;
51560;SDS011;37654;51.262;17.058;2024-01-15T06:13:36;9.90;;;4.93;;
51560;SDS011;37654;51.262;17.058;2024-01-15T06:16:01;10.45;;;5.32;;
51560;SDS011;37654;51.262;17.058;2024-01-15T06:18:27;12.40;;;5.82;;
51560;SDS011;37654;51.262;17.058;2024-01-15T06:20:52;16.00;;;5.75;;
51560;SDS011;37654;51.262;17.058;2024-01-15T06:23:18;12.65;;;5.65;;
51560;SDS011;37654;51.262;17.058;2024-01-15T06:25:43;19.38;;;6.63;;
51560;SDS011;37654;51.262;17.058;2024-01-15T06:28:08;11.82;;;5.28;;
51560;SDS011;37654;51.262;17.058;2024-01-15T06:30:34;12.68;;;5.40;;
51560;SDS011;37654;51.262;17.058;2024-01-15T06:33:00;11.88;;;5.10;;
51560;SDS011;37654;51.262;17.058;2024-01-15T06:35:25;11.73;;;5.47;;
51560;SDS011;37654;51.262;17.058;2024-01-15T06:37:50;12.90;;;5.10;;
51560;SDS011;37654;51.262;17.058;2024-01-15T06:40:16;16.13;;;6.07;;
51560;SDS011;37654;51.262;17.058;2024-01-15T06:42:41;17.63;;;5.63;;
51560;SDS011;37654;51.262;17.058;2024-01-15T06:45:06;11.95;;;5.38;;
51560;SDS011;37654;51.262;17.058;2024-01-15T06:47:32;14.23;;;5.43;;
51560;SDS011;37654;51.262;17.058;2024-01-15T06:49:57;13.50;;;5.25;;
51560;SDS011;37654;51.262;17.058;2024-01-15T06:52:23;11.05;;;5.80;;
51560;SDS011;37654;51.262;17.058;2024-01-15T06:54:49;14.98;;;6.32;;
51560;SDS011;37654;51.262;17.058;2024-01-15T06:57:14;18.05;;;6.55;;
51560;SDS011;37654;51.262;17.058;2024-01-15T06:59:39;17.20;;;6.63;;
51560;SDS011;37654;51.262;17.058;2024-01-15T07:02:05;11.67;;;5.70;;
51560;SDS011;37654;51.262;17.058;2024-01-15T07:04:30;15.02;;;6.95;;
51560;SDS011;37654;51.262;17.058;2024-01-15T07:06:56;18.63;;;6.95;;
51560;SDS011;37654;51.262;17.058;2024-01-15T07:09:21;14.55;;;6.82;;
51560;SDS011;37654;51.262;17.058;2024-01-15T07:11:46;18.45;;;6.43;;
51560;SDS011;37654;51.262;17.058;2024-01-15T07:14:12;15.80;;;6.88;;
51560;SDS011;37654;51.262;17.058;2024-01-15T07:16:37;20.17;;;6.90;;
51560;SDS011;37654;51.262;17.058;2024-01-15T07:19:03;17.02;;;6.20;;
51560;SDS011;37654;51.262;17.058;2024-01-15T07:21:28;24.70;;;9.13;;
51560;SDS011;37654;51.262;17.058;2024-01-15T07:23:53;32.55;;;13.35;;
51560;SDS011;37654;51.262;17.058;2024-01-15T07:26:18;25.13;;;9.38;;
51560;SDS011;37654;51.262;17.058;2024-01-15T07:28:44;19.65;;;7.97;;
51560;SDS011;37654;51.262;17.058;2024-01-15T07:31:09;20.70;;;7.35;;
51560;SDS011;37654;51.262;17.058;2024-01-15T07:33:34;17.73;;;6.28;;
51560;SDS011;37654;51.262;17.058;2024-01-15T07:36:00;22.48;;;8.60;;
51560;SDS011;37654;51.262;17.058;2024-01-15T07:38:26;18.25;;;5.82;;
51560;SDS011;37654;51.262;17.058;2024-01-15T07:40:51;12.40;;;5.22;;
51560;SDS011;37654;51.262;17.058;2024-01-15T07:43:18;16.33;;;5.75;;
51560;SDS011;37654;51.262;17.058;2024-01-15T07:45:44;14.85;;;6.05;;
51560;SDS011;37654;51.262;17.058;2024-01-15T07:48:10;13.50;;;5.20;;
51560;SDS011;37654;51.262;17.058;2024-01-15T07:50:35;14.95;;;5.95;;
51560;SDS011;37654;51.262;17.058;2024-01-15T07:53:00;16.80;;;5.37;;
51560;SDS011;37654;51.262;17.058;2024-01-15T07:55:26;12.35;;;5.85;;
51560;SDS011;37654;51.262;17.058;2024-01-15T07:57:51;11.43;;;5.07;;
51560;SDS011;37654;51.262;17.058;2024-01-15T08:00:18;15.52;;;6.97;;
51560;SDS011;37654;51.262;17.058;2024-01-15T08:02:44;21.10;;;7.53;;
51560;SDS011;37654;51.262;17.058;2024-01-15T08:05:09;26.83;;;10.40;;
51560;SDS011;37654;51.262;17.058;2024-01-15T08:07:34;15.70;;;5.53;;
51560;SDS011;37654;51.262;17.058;2024-01-15T08:10:00;20.98;;;6.97;;
51560;SDS011;37654;51.262;17.058;2024-01-15T08:12:25;12.90;;;4.55;;
51560;SDS011;37654;51.262;17.058;2024-01-15T08:14:51;12.48;;;5.47;;
51560;SDS011;37654;51.262;17.058;2024-01-15T08:17:16;13.98;;;4.95;;
51560;SDS011;37654;51.262;17.058;2024-01-15T08:19:42;10.68;;;5.07;;
51560;SDS011;37654;51.262;17.058;2024-01-15T08:22:07;11.88;;;3.90;;
51560;SDS011;37654;51.262;17.058;2024-01-15T08:24:32;11.02;;;5.05;;
51560;SDS011;37654;51.262;17.058;2024-01-15T08:26:57;12.10;;;4.38;;
51560;SDS011;37654;51.262;17.058;2024-01-15T08:29:23;12.50;;;4.78;;
51560;SDS011;37654;51.262;17.058;2024-01-15T08:31:49;12.40;;;4.30;;
51560;SDS011;37654;51.262;17.058;2024-01-15T08:34:15;11.02;;;4.25;;
51560;SDS011;37654;51.262;17.058;2024-01-15T08:36:40;13.98;;;4.80;;
51560;SDS011;37654;51.262;17.058;2024-01-15T08:39:05;13.02;;;4.82;;
51560;SDS011;37654;51.262;17.058;2024-01-15T08:41:32;13.88;;;5.00;;
51560;SDS011;37654;51.262;17.058;2024-01-15T08:43:57;18.27;;;7.03;;
51560;SDS011;37654;51.262;17.058;2024-01-15T08:46:23;14.30;;;4.13;;
51560;SDS011;37654;51.262;17.058;2024-01-15T08:48:49;13.23;;;4.18;;
51560;SDS011;37654;51.262;17.058;2024-01-15T08:51:14;14.13;;;6.35;;
51560;SDS011;37654;51.262;17.058;2024-01-15T08:53:40;13.13;;;6.00;;
51560;SDS011;37654;51.262;17.058;2024-01-15T08:56:05;9.27;;;4.22;;
51560;SDS011;37654;51.262;17.058;2024-01-15T08:58:31;10.68;;;4.70;;
51560;SDS011;37654;51.262;17.058;2024-01-15T09:00:56;12.20;;;3.85;;
51560;SDS011;37654;51.262;17.058;2024-01-15T09:03:21;10.02;;;4.10;;
51560;SDS011;37654;51.262;17.058;2024-01-15T09:05:46;12.43;;;4.85;;
51560;SDS011;37654;51.262;17.058;2024-01-15T09:08:13;10.30;;;4.00;;
51560;SDS011;37654;51.262;17.058;2024-01-15T09:10:39;11.35;;;4.63;;
51560;SDS011;37654;51.262;17.058;2024-01-15T09:13:04;11.95;;;4.50;;
51560;SDS011;37654;51.262;17.058;2024-01-15T09:15:29;12.43;;;4.05;;
51560;SDS011;37654;51.262;17.058;2024-01-15T09:17:55;19.13;;;7.40;;
51560;SDS011;37654;51.262;17.058;2024-01-15T09:20:22;16.52;;;6.00;;
51560;SDS011;37654;51.262;17.058;2024-01-15T09:22:47;14.67;;;4.23;;
51560;SDS011;37654;51.262;17.058;2024-01-15T09:25:12;12.55;;;4.28;;
51560;SDS011;37654;51.262;17.058;2024-01-15T09:27:38;13.13;;;4.40;;
51560;SDS011;37654;51.262;17.058;2024-01-15T09:30:04;12.23;;;5.73;;
51560;SDS011;37654;51.262;17.058;2024-01-15T09:32:30;13.73;;;3.78;;
51560;SDS011;37654;51.262;17.058;2024-01-15T09:34:55;15.23;;;5.07;;
51560;SDS011;37654;51.262;17.058;2024-01-15T09:37:20;12.82;;;4.18;;
51560;SDS011;37654;51.262;17.058;2024-01-15T09:39:45;16.73;;;5.57;;
51560;SDS011;37654;51.262;17.058;2024-01-15T09:42:13;9.32;;;3.67;;
51560;SDS011;37654;51.262;17.058;2024-01-15T09:44:38;15.23;;;4.28;;
51560;SDS011;37654;51.262;17.058;2024-01-15T09:47:03;9.80;;;3.60;;
51560;SDS011;37654;51.262;17.058;2024-01-15T09:49:29;13.38;;;4.80;;
51560;SDS011;37654;51.262;17.058;2024-01-15T09:51:55;10.93;;;4.20;;
51560;SDS011;37654;51.262;17.058;2024-01-15T09:54:20;12.32;;;4.57;;
51560;SDS011;37654;51.262;17.058;2024-01-15T09:56:46;8.90;;;3.30;;
51560;SDS011;37654;51.262;17.058;2024-01-15T09:59:18;14.75;;;5.57;;
51560;SDS011;37654;51.262;17.058;2024-01-15T10:01:46;12.75;;;4.40;;
51560;SDS011;37654;51.262;17.058;2024-01-15T10:04:13;9.90;;;4.10;;
51560;SDS011;37654;51.262;17.058;2024-01-15T10:06:39;11.32;;;4.03;;
51560;SDS011;37654;51.262;17.058;2024-01-15T10:09:07;12.80;;;4.13;;
51560;SDS011;37654;51.262;17.058;2024-01-15T10:11:33;11.15;;;3.70;;
51560;SDS011;37654;51.262;17.058;2024-01-15T10:13:58;15.35;;;4.28;;
51560;SDS011;37654;51.262;17.058;2024-01-15T10:16:23;8.73;;;3.58;;
51560;SDS011;37654;51.262;17.058;2024-01-15T10:18:49;9.73;;;4.20;;
51560;SDS011;37654;51.262;17.058;2024-01-15T10:21:14;12.45;;;3.78;;
51560;SDS011;37654;51.262;17.058;2024-01-15T10:23:40;8.88;;;3.60;;
51560;SDS011;37654;51.262;17.058;2024-01-15T10:26:06;11.35;;;3.97;;
51560;SDS011;37654;51.262;17.058;2024-01-15T10:28:31;12.30;;;4.38;;
51560;SDS011;37654;51.262;17.058;2024-01-15T10:30:57;9.13;;;3.60;;
51560;SDS011;37654;51.262;17.058;2024-01-15T10:33:24;13.00;;;4.03;;
51560;SDS011;37654;51.262;17.058;2024-01-15T10:35:50;8.20;;;3.67;;
51560;SDS011;37654;51.262;17.058;2024-01-15T10:38:18;10.18;;;3.95;;
51560;SDS011;37654;51.262;17.058;2024-01-15T10:40:47;9.65;;;4.00;;
51560;SDS011;37654;51.262;17.058;2024-01-15T10:43:12;10.33;;;4.20;;
51560;SDS011;37654;51.262;17.058;2024-01-15T10:45:37;10.40;;;3.97;;
51560;SDS011;37654;51.262;17.058;2024-01-15T10:48:03;12.32;;;4.38;;
51560;SDS011;37654;51.262;17.058;2024-01-15T10:50:28;10.60;;;4.93;;
51560;SDS011;37654;51.262;17.058;2024-01-15T10:52:54;9.07;;;3.67;;
51560;SDS011;37654;51.262;17.058;2024-01-15T10:55:20;9.68;;;3.80;;
51560;SDS011;37654;51.262;17.058;2024-01-15T10:57:46;17.27;;;6.88;;
51560;SDS011;37654;51.262;17.058;2024-01-15T11:00:13;12.30;;;3.90;;
51560;SDS011;37654;51.262;17.058;2024-01-15T11:02:39;13.75;;;5.75;;
51560;SDS011;37654;51.262;17.058;2024-01-15T11:05:05;13.20;;;4.60;;
51560;SDS011;37654;51.262;17.058;2024-01-15T11:07:31;14.68;;;4.50;;
51560;SDS011;37654;51.262;17.058;2024-01-15T11:09:56;14.98;;;4.97;;
51560;SDS011;37654;51.262;17.058;2024-01-15T11:12:23;9.00;;;3.67;;
51560;SDS011;37654;51.262;17.058;2024-01-15T11:14:49;9.85;;;4.05;;
51560;SDS011;37654;51.262;17.058;2024-01-15T11:17:15;8.82;;;3.53;;
51560;SDS011;37654;51.262;17.058;2024-01-15T11:22:09;15.90;;;6.13;;
51560;SDS011;37654;51.262;17.058;2024-01-15T11:24:37;8.52;;;4.35;;
51560;SDS011;37654;51.262;17.058;2024-01-15T11:27:03;9.70;;;4.32;;
51560;SDS011;37654;51.262;17.058;2024-01-15T11:29:29;9.50;;;3.40;;
51560;SDS011;37654;51.262;17.058;2024-01-15T11:31:56;11.13;;;4.70;;
51560;SDS011;37654;51.262;17.058;2024-01-15T11:34:49;12.85;;;4.05;;
51560;SDS011;37654;51.262;17.058;2024-01-15T11:37:08;10.85;;;4.57;;
51560;SDS011;37654;51.262;17.058;2024-01-15T11:41:59;10.37;;;3.77;;
51560;SDS011;37654;51.262;17.058;2024-01-15T11:44:25;7.55;;;3.33;;
51560;SDS011;37654;51.262;17.058;2024-01-15T11:49:26;9.32;;;3.80;;
51560;SDS011;37654;51.262;17.058;2024-01-15T11:51:56;16.23;;;3.63;;
51560;SDS011;37654;51.262;17.058;2024-01-15T11:54:22;9.13;;;3.03;;
51560;SDS011;37654;51.262;17.058;2024-01-15T11:56:48;12.45;;;4.13;;
51560;SDS011;37654;51.262;17.058;2024-01-15T11:59:14;10.20;;;3.57;;
51560;SDS011;37654;51.262;17.058;2024-01-15T12:01:39;8.85;;;3.50;;
51560;SDS011;37654;51.262;17.058;2024-01-15T12:04:04;11.82;;;3.55;;
51560;SDS011;37654;51.262;17.058;2024-01-15T12:06:30;13.57;;;3.57;;
51560;SDS011;37654;51.262;17.058;2024-01-15T12:11:34;13.50;;;4.80;;
51560;SDS011;37654;51.262;17.058;2024-01-15T12:14:01;19.05;;;4.90;;
51560;SDS011;37654;51.262;17.058;2024-01-15T12:16:26;12.07;;;4.38;;
51560;SDS011;37654;51.262;17.058;2024-01-15T12:18:52;8.60;;;3.33;;
51560;SDS011;37654;51.262;17.058;2024-01-15T12:21:17;10.70;;;3.45;;
51560;SDS011;37654;51.262;17.058;2024-01-15T12:23:45;13.25;;;4.38;;
51560;SDS011;37654;51.262;17.058;2024-01-15T12:26:11;17.42;;;5.38;;
51560;SDS011;37654;51.262;17.058;2024-01-15T12:28:36;12.70;;;4.35;;
51560;SDS011;37654;51.262;17.058;2024-01-15T12:31:01;10.85;;;3.65;;
51560;SDS011;37654;51.262;17.058;2024-01-15T12:33:30;11.90;;;4.07;;
51560;SDS011;37654;51.262;17.058;2024-01-15T12:35:55;10.25;;;4.13;;
51560;SDS011;37654;51.262;17.058;2024-01-15T12:38:20;11.68;;;4.28;;
51560;SDS011;37654;51.262;17.058;2024-01-15T12:40:46;10.25;;;4.15;;
51560;SDS011;37654;51.262;17.058;2024-01-15T12:43:11;11.23;;;3.65;;
51560;SDS011;37654;51.262;17.058;2024-01-15T12:45:37;12.25;;;3.80;;
51560;SDS011;37654;51.262;17.058;2024-01-15T12:48:03;8.40;;;3.45;;
51560;SDS011;37654;51.262;17.058;2024-01-15T12:50:29;12.52;;;3.30;;
51560;SDS011;37654;51.262;17.058;2024-01-15T12:52:54;7.32;;;3.38;;
51560;SDS011;37654;51.262;17.058;2024-01-15T12:55:20;10.48;;;3.60;;
51560;SDS011;37654;51.262;17.058;2024-01-15T12:57:45;10.20;;;4.38;;
51560;SDS011;37654;51.262;17.058;2024-01-15T13:00:10;10.18;;;3.38;;
51560;SDS011;37654;51.262;17.058;2024-01-15T13:02:37;16.33;;;5.03;;
51560;SDS011;37654;51.262;17.058;2024-01-15T13:05:03;24.15;;;9.43;;
51560;SDS011;37654;51.262;17.058;2024-01-15T13:07:29;24.13;;;8.50;;
51560;SDS011;37654;51.262;17.058;2024-01-15T13:09:54;12.77;;;4.68;;
51560;SDS011;37654;51.262;17.058;2024-01-15T13:12:20;17.50;;;4.32;;
51560;SDS011;37654;51.262;17.058;2024-01-15T13:14:45;11.52;;;4.00;;
51560;SDS011;37654;51.262;17.058;2024-01-15T13:17:12;8.75;;;4.40;;
51560;SDS011;37654;51.262;17.058;2024-01-15T13:19:37;7.53;;;3.67;;
51560;SDS011;37654;51.262;17.058;2024-01-15T13:22:04;9.48;;;4.07;;
51560;SDS011;37654;51.262;17.058;2024-01-15T13:24:31;12.18;;;3.95;;
51560;SDS011;37654;51.262;17.058;2024-01-15T13:26:57;11.88;;;4.22;;
51560;SDS011;37654;51.262;17.058;2024-01-15T13:29:22;10.57;;;3.58;;
51560;SDS011;37654;51.262;17.058;2024-01-15T13:31:48;7.22;;;2.80;;
51560;SDS011;37654;51.262;17.058;2024-01-15T13:34:13;6.75;;;3.58;;
51560;SDS011;37654;51.262;17.058;2024-01-15T13:36:39;9.93;;;3.58;;
51560;SDS011;37654;51.262;17.058;2024-01-15T13:39:04;12.68;;;4.15;;
51560;SDS011;37654;51.262;17.058;2024-01-15T13:41:33;10.82;;;4.10;;
51560;SDS011;37654;51.262;17.058;2024-01-15T13:43:59;15.68;;;5.50;;
51560;SDS011;37654;51.262;17.058;2024-01-15T13:46:25;14.98;;;5.65;;
51560;SDS011;37654;51.262;17.058;2024-01-15T13:48:54;13.75;;;4.10;;
51560;SDS011;37654;51.262;17.058;2024-01-15T13:51:21;9.98;;;3.90;;
51560;SDS011;37654;51.262;17.058;2024-01-15T13:53:47;9.65;;;3.67;;
51560;SDS011;37654;51.262;17.058;2024-01-15T13:56:12;9.65;;;3.75;;
51560;SDS011;37654;51.262;17.058;2024-01-15T13:58:38;7.93;;;3.22;;
51560;SDS011;37654;51.262;17.058;2024-01-15T14:01:03;13.67;;;4.73;;
51560;SDS011;37654;51.262;17.058;2024-01-15T14:03:31;11.20;;;3.55;;
51560;SDS011;37654;51.262;17.058;2024-01-15T14:05:56;11.50;;;4.25;;
51560;SDS011;37654;51.262;17.058;2024-01-15T14:08:21;12.77;;;5.47;;
51560;SDS011;37654;51.262;17.058;2024-01-15T14:10:47;12.20;;;4.25;;
51560;SDS011;37654;51.262;17.058;2024-01-15T14:13:12;11.10;;;4.05;;
51560;SDS011;37654;51.262;17.058;2024-01-15T14:15:37;9.32;;;4.00;;
51560;SDS011;37654;51.262;17.058;2024-01-15T14:18:03;11.50;;;4.20;;
51560;SDS011;37654;51.262;17.058;2024-01-15T14:20:28;11.90;;;4.82;;
51560;SDS011;37654;51.262;17.058;2024-01-15T14:22:54;14.07;;;4.78;;